createdAt,value
2023-04-03T00:00:50.450Z,49.10
2023-04-03T00:03:18.613Z,48.13
2023-04-03T00:05:48.476Z,48.33
2023-04-03T00:08:16.373Z,47.83
2023-04-03T00:10:44.414Z,48.68
2023-04-03T00:13:12.426Z,48.62
2023-04-03T00:15:41.389Z,48.98
2023-04-03T00:18:09.780Z,48.90
2023-04-03T00:20:38.084Z,49.23
2023-04-03T00:23:07.583Z,48.80
2023-04-03T00:25:35.455Z,48.23
2023-04-03T00:28:04.312Z,48.23
2023-04-03T00:30:32.484Z,48.25
2023-04-03T00:33:01.587Z,47.78
2023-04-03T00:35:30.066Z,47.26
2023-04-03T00:37:58.911Z,47.15
2023-04-03T00:40:28.875Z,47.68
2023-04-03T00:42:59.720Z,46.73
2023-04-03T00:45:37.857Z,46.32
2023-04-03T00:48:09.015Z,46.93
2023-04-03T00:50:39.486Z,47.18
2023-04-03T00:53:11.026Z,46.88
2023-04-03T00:55:40.836Z,46.91
2023-04-03T00:58:10.295Z,46.99
2023-04-03T01:00:41.535Z,47.56
2023-04-03T01:03:09.334Z,48.45
2023-04-03T01:05:37.400Z,48.34
2023-04-03T01:08:05.454Z,47.63
2023-04-03T01:10:33.215Z,46.89
2023-04-03T01:13:02.826Z,47.47
2023-04-03T01:15:35.795Z,47.22
2023-04-03T01:18:05.700Z,46.83
2023-04-03T01:20:49.055Z,46.58
2023-04-03T01:23:27.774Z,46.69
2023-04-03T01:25:57.558Z,47.60
2023-04-03T01:28:30.263Z,46.93
2023-04-03T01:31:04.608Z,46.57
2023-04-03T01:33:33.744Z,47.36
2023-04-03T01:36:02.456Z,47.98
2023-04-03T01:38:30.379Z,47.94
2023-04-03T01:40:58.315Z,48.09
2023-04-03T01:43:26.189Z,48.14
2023-04-03T01:45:55.721Z,48.03
2023-04-03T01:48:23.630Z,48.01
2023-04-03T01:50:52.746Z,48.17
2023-04-03T01:53:20.439Z,48.92
2023-04-03T01:55:48.298Z,47.87
2023-04-03T01:58:16.047Z,47.54
2023-04-03T02:00:43.781Z,48.13
2023-04-03T02:03:11.693Z,48.37
2023-04-03T02:05:40.481Z,48.21
2023-04-03T02:08:09.603Z,49.23
2023-04-03T02:10:37.768Z,48.78
2023-04-03T02:13:05.956Z,48.47
2023-04-03T02:15:33.712Z,48.34
2023-04-03T02:18:01.561Z,48.67
2023-04-03T02:20:35.651Z,48.39
2023-04-03T02:23:03.971Z,49.34
2023-04-03T02:25:36.632Z,48.66
2023-04-03T02:28:06.125Z,49.04
2023-04-03T02:30:33.947Z,48.57
2023-04-03T02:33:01.810Z,49.29
2023-04-03T02:35:29.676Z,49.71
2023-04-03T02:37:57.362Z,49.58
2023-04-03T02:40:25.138Z,49.21
2023-04-03T02:42:54.220Z,48.92
2023-04-03T02:45:21.955Z,50.65
2023-04-03T02:47:49.730Z,49.79
2023-04-03T02:50:17.776Z,50.79
2023-04-03T02:52:45.510Z,50.64
2023-04-03T02:55:16.169Z,50.37
2023-04-03T02:57:44.004Z,51.66
2023-04-03T03:00:14.146Z,49.48
2023-04-03T03:02:42.152Z,50.22
2023-04-03T03:05:10.834Z,49.24
2023-04-03T03:07:38.740Z,48.98
2023-04-03T03:10:07.304Z,48.46
2023-04-03T03:12:35.275Z,48.31
2023-04-03T03:15:03.008Z,47.92
2023-04-03T03:17:32.111Z,47.61
2023-04-03T03:19:59.920Z,47.90
2023-04-03T03:22:28.819Z,48.16
2023-04-03T03:24:57.527Z,48.77
2023-04-03T03:27:25.739Z,49.17
2023-04-03T03:29:53.498Z,48.91
2023-04-03T03:32:21.558Z,48.61
2023-04-03T03:34:50.803Z,48.46
2023-04-03T03:37:18.628Z,48.58
2023-04-03T03:39:46.355Z,48.63
2023-04-03T03:42:14.096Z,48.68
2023-04-03T03:44:41.841Z,48.89
2023-04-03T03:47:11.747Z,49.34
2023-04-03T03:49:39.547Z,49.40
2023-04-03T03:52:11.468Z,49.18
2023-04-03T03:54:39.873Z,49.11
2023-04-03T03:57:07.743Z,48.84
2023-04-03T03:59:35.543Z,49.28
2023-04-03T04:02:03.308Z,48.46
2023-04-03T04:04:31.156Z,48.59
2023-04-03T04:06:58.861Z,48.26
2023-04-03T04:09:28.228Z,49.14
2023-04-03T04:11:56.278Z,48.50
2023-04-03T04:14:24.077Z,48.99
2023-04-03T04:16:51.979Z,48.78
2023-04-03T04:19:19.792Z,49.13
2023-04-03T04:21:47.568Z,49.21
2023-04-03T04:24:15.540Z,48.29
2023-04-03T04:26:44.686Z,48.91
2023-04-03T04:29:12.409Z,49.70
2023-04-03T04:31:40.084Z,49.45
2023-04-03T04:34:08.104Z,49.71
2023-04-03T04:36:36.140Z,49.59
2023-04-03T04:39:03.917Z,49.66
2023-04-03T04:41:31.646Z,49.37
2023-04-03T04:44:00.866Z,49.40
2023-04-03T04:46:28.714Z,50.01
2023-04-03T04:48:56.936Z,49.42
2023-04-03T04:51:24.639Z,50.27
2023-04-03T04:53:53.518Z,50.65
2023-04-03T04:56:22.886Z,50.04
2023-04-03T04:58:50.616Z,50.54
2023-04-03T05:01:20.127Z,50.52
2023-04-03T05:03:48.832Z,50.20
2023-04-03T05:06:16.590Z,50.26
2023-04-03T05:08:44.317Z,50.21
2023-04-03T05:11:12.177Z,50.66
2023-04-03T05:13:39.932Z,51.29
2023-04-03T05:16:08.227Z,49.52
2023-04-03T05:18:37.437Z,50.58
2023-04-03T05:21:05.556Z,50.14
2023-04-03T05:23:33.302Z,49.96
2023-04-03T05:26:01.235Z,50.63
2023-04-03T05:28:29.029Z,50.57
2023-04-03T05:30:57.578Z,51.30
2023-04-03T05:33:27.170Z,50.15
2023-04-03T05:35:56.931Z,50.80
2023-04-03T05:38:24.916Z,49.71
2023-04-03T05:40:52.833Z,50.41
2023-04-03T05:43:20.628Z,50.47
2023-04-03T05:45:49.633Z,51.15
2023-04-03T05:48:17.458Z,50.81
2023-04-03T05:50:45.222Z,50.59
2023-04-03T05:53:19.859Z,50.61
2023-04-03T05:55:47.593Z,50.75
2023-04-03T05:58:15.438Z,50.87
2023-04-03T06:00:43.392Z,49.70
2023-04-03T06:03:11.379Z,49.34
2023-04-03T06:05:39.532Z,49.33
2023-04-03T06:08:07.568Z,49.15
2023-04-03T06:10:37.187Z,49.71
2023-04-03T06:13:05.087Z,50.37
2023-04-03T06:15:32.848Z,48.69
2023-04-03T06:18:00.571Z,48.52
2023-04-03T06:20:28.484Z,49.07
2023-04-03T06:22:56.236Z,48.87
2023-04-03T06:25:24.019Z,48.45
2023-04-03T06:27:53.099Z,48.86
2023-04-03T06:30:21.022Z,49.36
2023-04-03T06:32:48.870Z,49.96
2023-04-03T06:35:16.937Z,49.22
2023-04-03T06:37:44.667Z,48.61
2023-04-03T06:40:20.248Z,49.14
2023-04-03T06:42:48.475Z,48.97
2023-04-03T06:45:18.848Z,49.24
2023-04-03T06:47:47.248Z,49.47
2023-04-03T06:50:16.231Z,49.17
2023-04-03T06:52:43.977Z,49.32
2023-04-03T06:55:12.525Z,48.81
2023-04-03T06:57:40.410Z,49.56
2023-04-03T07:00:10.185Z,48.34
2023-04-03T07:02:39.343Z,49.93
2023-04-03T07:05:08.087Z,48.71
2023-04-03T07:07:36.120Z,48.09
2023-04-03T07:10:03.933Z,48.12
2023-04-03T07:12:31.861Z,48.53
2023-04-03T07:15:00.241Z,48.21
2023-04-03T07:17:28.015Z,48.32
2023-04-03T07:19:57.275Z,48.48
2023-04-03T07:22:25.287Z,47.36
2023-04-03T07:24:53.006Z,48.04
2023-04-03T07:27:20.717Z,47.91
2023-04-03T07:29:49.599Z,47.90
2023-04-03T07:32:18.547Z,46.61
2023-04-03T07:34:46.685Z,48.94
2023-04-03T07:37:15.818Z,48.23
2023-04-03T07:39:45.870Z,47.42
2023-04-03T07:42:14.269Z,47.04
2023-04-03T07:44:42.031Z,47.63
2023-04-03T07:47:10.258Z,47.48
2023-04-03T07:49:41.402Z,45.78
2023-04-03T07:52:09.996Z,47.38
2023-04-03T07:54:39.430Z,45.79
2023-04-03T07:57:07.617Z,45.74
2023-04-03T07:59:35.813Z,47.56
2023-04-03T08:02:05.864Z,46.68
2023-04-03T08:04:34.183Z,47.71
2023-04-03T08:07:01.999Z,46.73
2023-04-03T08:09:29.829Z,47.38
2023-04-03T08:11:59.115Z,48.63
2023-04-03T08:14:27.116Z,47.10
2023-04-03T08:16:54.889Z,47.68
2023-04-03T08:19:26.706Z,46.58
2023-04-03T08:21:55.490Z,47.43
2023-04-03T08:24:23.366Z,48.26
2023-04-03T08:26:51.145Z,48.04
2023-04-03T08:29:20.456Z,47.73
2023-04-03T08:31:48.412Z,48.65
2023-04-03T08:34:16.206Z,47.40
2023-04-03T08:36:44.314Z,47.21
2023-04-03T08:39:12.671Z,47.14
2023-04-03T08:41:43.161Z,47.42
2023-04-03T08:44:23.948Z,47.59
2023-04-03T08:47:04.275Z,48.12
2023-04-03T08:49:35.693Z,47.04
2023-04-03T08:52:12.058Z,47.96
2023-04-03T08:54:50.219Z,47.03
2023-04-03T08:57:19.583Z,46.88
2023-04-03T08:59:48.126Z,47.78
2023-04-03T09:02:28.839Z,48.69
2023-04-03T09:04:57.892Z,49.91
2023-04-03T09:07:35.354Z,47.76
2023-04-03T09:10:04.154Z,47.13
2023-04-03T09:12:38.136Z,48.04
2023-04-03T09:15:20.081Z,48.36
2023-04-03T09:18:03.680Z,48.78
2023-04-03T09:20:41.622Z,48.07
2023-04-03T09:23:19.860Z,46.92
2023-04-03T09:25:48.213Z,48.73
2023-04-03T09:28:16.156Z,49.74
2023-04-03T09:30:43.946Z,48.97
2023-04-03T09:33:14.592Z,48.78
2023-04-03T09:35:48.508Z,49.06
2023-04-03T09:38:22.882Z,48.48
2023-04-03T09:40:52.690Z,49.28
2023-04-03T09:43:30.341Z,49.11
2023-04-03T09:46:19.323Z,48.58
2023-04-03T09:49:08.082Z,48.54
2023-04-03T09:51:36.778Z,49.38
2023-04-03T09:54:37.003Z,48.97
2023-04-03T09:57:09.831Z,48.01
2023-04-03T09:59:39.977Z,48.50
2023-04-03T10:02:26.527Z,48.17
2023-04-03T10:05:08.963Z,48.64
2023-04-03T10:07:41.305Z,49.50
2023-04-03T10:10:25.005Z,49.50
2023-04-03T10:13:06.558Z,49.50
2023-04-03T10:15:41.567Z,50.15
2023-04-03T10:18:28.627Z,48.74
2023-04-03T10:21:02.896Z,48.53
2023-04-03T10:23:35.032Z,48.61
2023-04-03T10:26:16.738Z,48.62
2023-04-03T10:28:51.597Z,48.93
2023-04-03T10:31:27.759Z,47.17
2023-04-03T10:34:07.063Z,46.96
2023-04-03T10:36:47.747Z,47.98
2023-04-03T10:39:27.488Z,46.39
2023-04-03T10:42:16.729Z,46.73
2023-04-03T10:44:59.090Z,46.75
2023-04-03T10:47:35.494Z,46.13
2023-04-03T10:50:28.626Z,45.85
2023-04-03T10:53:02.608Z,46.36
2023-04-03T10:55:38.117Z,45.24
2023-04-03T10:58:08.312Z,45.47
2023-04-03T11:00:41.458Z,45.21
2023-04-03T11:03:16.562Z,45.01
2023-04-03T11:05:47.678Z,45.08
2023-04-03T11:08:27.326Z,44.84
2023-04-03T11:10:59.509Z,45.42
2023-04-03T11:13:34.623Z,45.07
2023-04-03T11:16:02.832Z,43.90
2023-04-03T11:18:37.408Z,42.86
2023-04-03T11:21:13.753Z,42.36
2023-04-03T11:23:49.376Z,43.25
2023-04-03T11:26:21.729Z,40.72
2023-04-03T11:28:54.945Z,43.17
2023-04-03T11:31:35.579Z,44.69
2023-04-03T11:34:15.740Z,44.15
2023-04-03T11:36:48.271Z,43.35
2023-04-03T11:39:24.653Z,42.46
2023-04-03T11:42:00.212Z,41.40
2023-04-03T11:44:37.439Z,42.17
2023-04-03T11:47:06.726Z,43.31
2023-04-03T11:49:56.411Z,41.61
2023-04-03T11:53:02.501Z,42.33
2023-04-03T11:56:15.166Z,42.38
2023-04-03T11:59:23.485Z,42.08
2023-04-03T12:01:52.935Z,42.27
2023-04-03T12:04:22.154Z,43.42
2023-04-03T12:07:14.562Z,43.94
2023-04-03T12:10:31.843Z,44.25
2023-04-03T12:13:05.072Z,42.58
2023-04-03T12:15:58.088Z,42.97
2023-04-03T12:18:57.661Z,41.99
2023-04-03T12:21:38.958Z,44.26
2023-04-03T12:24:26.240Z,44.29
2023-04-03T12:27:20.839Z,43.47
2023-04-03T12:29:54.867Z,42.90
2023-04-03T12:32:37.235Z,41.44
2023-04-03T12:35:18.605Z,42.67
2023-04-03T12:37:59.609Z,40.80
2023-04-03T12:40:33.273Z,41.76
2023-04-03T12:43:20.882Z,44.27
2023-04-03T12:45:56.006Z,42.60
2023-04-03T12:48:28.007Z,43.65
2023-04-03T12:50:57.467Z,42.88
2023-04-03T12:53:28.449Z,44.07
2023-04-03T12:55:57.058Z,43.00
2023-04-03T12:58:28.656Z,41.42
2023-04-03T13:01:04.284Z,41.85
2023-04-03T13:03:33.081Z,42.51
2023-04-03T13:06:04.317Z,42.49
2023-04-03T13:08:32.612Z,42.29
2023-04-03T13:11:03.662Z,42.47
2023-04-03T13:13:32.902Z,41.73
2023-04-03T13:16:00.796Z,42.75
2023-04-03T13:18:33.864Z,42.73
2023-04-03T13:21:06.926Z,41.49
2023-04-03T13:23:38.330Z,41.45
2023-04-03T13:26:07.568Z,41.45
2023-04-03T13:28:37.902Z,40.80
2023-04-03T13:31:11.468Z,41.13
2023-04-03T13:33:40.026Z,40.39
2023-04-03T13:36:13.021Z,42.85
2023-04-03T13:38:40.882Z,41.92
2023-04-03T13:41:27.099Z,43.27
2023-04-03T13:44:03.366Z,41.09
2023-04-03T13:46:38.319Z,40.44
2023-04-03T13:49:19.963Z,41.56
2023-04-03T13:51:54.148Z,40.20
2023-04-03T13:54:34.459Z,39.18
2023-04-03T13:57:02.883Z,40.98
2023-04-03T13:59:34.098Z,39.59
2023-04-03T14:02:17.403Z,39.87
2023-04-03T14:04:54.177Z,40.44
2023-04-03T14:07:22.430Z,41.68
2023-04-03T14:09:50.905Z,39.93
2023-04-03T14:12:31.217Z,41.08
2023-04-03T14:15:02.664Z,39.97
2023-04-03T14:17:30.918Z,41.63
2023-04-03T14:19:59.577Z,40.16
2023-04-03T14:22:30.314Z,39.21
2023-04-03T14:24:58.518Z,40.88
2023-04-03T14:27:29.406Z,41.81
2023-04-03T14:29:59.346Z,41.49
2023-04-03T14:32:28.831Z,41.32
2023-04-03T14:34:57.989Z,40.27
2023-04-03T14:37:28.905Z,39.60
2023-04-03T14:39:58.904Z,40.13
2023-04-03T14:42:30.939Z,41.52
2023-04-03T14:44:58.917Z,40.98
2023-04-03T14:47:32.106Z,41.31
2023-04-03T14:50:01.390Z,41.04
2023-04-03T14:52:32.548Z,40.86
2023-04-03T14:55:01.310Z,41.37
2023-04-03T14:57:30.988Z,40.75
2023-04-03T14:59:58.948Z,41.08
2023-04-03T15:02:31.691Z,40.24
2023-04-03T15:05:00.770Z,39.60
2023-04-03T15:07:30.975Z,41.01
2023-04-03T15:09:58.890Z,40.64
2023-04-03T15:12:27.425Z,40.45
2023-04-03T15:15:01.765Z,41.04
2023-04-03T15:17:32.800Z,40.33
2023-04-03T15:20:01.006Z,41.20
2023-04-03T15:22:28.965Z,42.37
2023-04-03T15:24:56.685Z,41.60
2023-04-03T15:27:24.378Z,42.66
2023-04-03T15:29:52.094Z,42.26
2023-04-03T15:32:19.942Z,40.37
2023-04-03T15:34:49.204Z,40.59
2023-04-03T15:37:16.978Z,40.42
2023-04-03T15:39:44.698Z,41.11
2023-04-03T15:42:13.588Z,41.65
2023-04-03T15:44:41.359Z,39.37
2023-04-03T15:47:09.303Z,38.68
2023-04-03T15:49:37.616Z,38.61
2023-04-03T15:52:06.669Z,40.12
2023-04-03T15:54:34.402Z,41.22
2023-04-03T15:57:02.187Z,39.79
2023-04-03T15:59:31.735Z,40.50
2023-04-03T16:02:02.023Z,39.38
2023-04-03T16:04:30.596Z,39.57
2023-04-03T16:07:08.601Z,41.27
2023-04-03T16:09:38.426Z,39.26
2023-04-03T16:12:06.146Z,38.79
2023-04-03T16:17:02.562Z,40.24
2023-04-03T16:19:31.764Z,40.22
2023-04-03T16:21:59.805Z,40.26
2023-04-03T16:24:28.965Z,39.61
2023-04-03T16:26:56.720Z,40.99
2023-04-03T16:29:24.400Z,40.42
2023-04-03T16:31:52.949Z,39.88
2023-04-03T16:34:21.010Z,39.50
2023-04-03T16:36:48.750Z,39.84
2023-04-03T16:39:16.863Z,40.43
2023-04-03T16:41:46.340Z,40.14
2023-04-03T16:44:14.673Z,40.23
2023-04-03T16:46:42.521Z,38.89
2023-04-03T16:49:10.504Z,39.54
2023-04-03T16:51:38.389Z,40.15
2023-04-03T16:54:07.509Z,39.66
2023-04-03T16:56:35.356Z,40.17
2023-04-03T16:59:04.595Z,40.41
2023-04-03T17:01:32.621Z,40.31
2023-04-03T17:04:00.423Z,40.39
2023-04-03T17:06:28.219Z,39.84
2023-04-03T17:08:56.016Z,39.25
2023-04-03T17:11:24.183Z,38.97
2023-04-03T17:13:51.871Z,39.91
2023-04-03T17:16:21.418Z,39.81
2023-04-03T17:18:50.074Z,39.32
2023-04-03T17:21:18.783Z,39.75
2023-04-03T17:23:49.195Z,40.42
2023-04-03T17:26:17.099Z,39.71
2023-04-03T17:28:45.669Z,39.13
2023-04-03T17:31:14.612Z,39.47
2023-04-03T17:33:43.784Z,39.61
2023-04-03T17:36:12.089Z,39.87
2023-04-03T17:38:40.151Z,39.69
2023-04-03T17:41:09.739Z,40.27
2023-04-03T17:43:37.631Z,40.62
2023-04-03T17:46:08.992Z,40.81
2023-04-03T17:48:39.024Z,40.72
2023-04-03T17:51:09.162Z,40.40
2023-04-03T17:53:36.956Z,40.37
2023-04-03T17:56:07.559Z,39.73
2023-04-03T17:58:35.582Z,38.98
2023-04-03T18:01:10.140Z,40.43
2023-04-03T18:03:38.066Z,39.94
2023-04-03T18:06:06.994Z,39.26
2023-04-03T18:08:39.899Z,39.30
2023-04-03T18:11:08.274Z,39.66
2023-04-03T18:13:37.685Z,38.62
2023-04-03T18:16:06.408Z,38.71
2023-04-03T18:18:34.507Z,39.01
2023-04-03T18:21:02.387Z,39.27
2023-04-03T18:23:33.310Z,39.18
2023-04-03T18:26:04.148Z,39.29
2023-04-03T18:28:32.969Z,39.37
2023-04-03T18:31:01.842Z,39.65
2023-04-03T18:33:29.696Z,39.33
2023-04-03T18:35:57.442Z,39.57
2023-04-03T18:38:25.416Z,39.52
2023-04-03T18:40:54.044Z,39.04
2023-04-03T18:43:23.416Z,39.85
2023-04-03T18:45:51.267Z,39.77
2023-04-03T18:48:20.204Z,39.43
2023-04-03T18:50:48.194Z,39.85
2023-04-03T18:53:16.019Z,40.04
2023-04-03T18:55:43.821Z,40.21
2023-04-03T18:58:11.531Z,39.76
2023-04-03T19:00:42.413Z,39.96
2023-04-03T19:03:12.718Z,40.92
2023-04-03T19:05:40.794Z,40.78
2023-04-03T19:08:08.877Z,40.69
2023-04-03T19:10:36.940Z,40.44
2023-04-03T19:13:04.757Z,40.27
2023-04-03T19:15:32.919Z,40.50
2023-04-03T19:18:02.158Z,40.30
2023-04-03T19:20:30.191Z,40.75
2023-04-03T19:22:57.975Z,40.49
2023-04-03T19:25:25.731Z,41.04
2023-04-03T19:27:54.631Z,40.68
2023-04-03T19:30:22.632Z,41.18
2023-04-03T19:32:50.650Z,41.91
2023-04-03T19:35:19.849Z,41.92
2023-04-03T19:37:50.766Z,41.97
2023-04-03T19:40:18.915Z,42.49
2023-04-03T19:42:46.613Z,42.56
2023-04-03T19:45:14.970Z,42.31
2023-04-03T19:47:43.000Z,42.71
2023-04-03T19:50:11.846Z,42.72
2023-04-03T19:52:41.038Z,42.24
2023-04-03T19:55:09.611Z,41.54
2023-04-03T19:57:37.567Z,41.92
2023-04-03T20:00:06.076Z,41.42
2023-04-03T20:02:33.862Z,42.25
2023-04-03T20:05:01.803Z,42.52
2023-04-03T20:07:29.584Z,43.22
2023-04-03T20:09:58.706Z,43.23
2023-04-03T20:12:26.472Z,42.09
2023-04-03T20:14:54.283Z,41.98
2023-04-03T20:17:21.999Z,41.75
2023-04-03T20:19:50.957Z,41.72
2023-04-03T20:22:18.714Z,42.02
2023-04-03T20:24:46.447Z,41.55
2023-04-03T20:27:16.453Z,41.89
2023-04-03T20:29:44.588Z,42.69
2023-04-03T20:32:14.897Z,42.12
2023-04-03T20:34:42.807Z,42.59
2023-04-03T20:37:12.431Z,42.79
2023-04-03T20:39:40.825Z,43.47
2023-04-03T20:42:09.248Z,43.43
2023-04-03T20:44:38.543Z,42.98
2023-04-03T20:47:06.682Z,43.63
2023-04-03T20:49:34.632Z,43.88
2023-04-03T20:52:02.383Z,43.98
2023-04-03T20:54:30.147Z,44.73
2023-04-03T20:56:57.901Z,44.33
2023-04-03T20:59:25.892Z,43.95
2023-04-03T21:01:55.011Z,44.34
2023-04-03T21:04:26.577Z,44.34
2023-04-03T21:07:31.711Z,43.97
2023-04-03T21:10:37.276Z,43.96
2023-04-03T21:13:42.344Z,44.41
2023-04-03T21:16:09.842Z,43.74
2023-04-03T21:19:07.033Z,43.94
2023-04-03T21:21:37.388Z,44.09
2023-04-03T21:24:09.948Z,44.34
2023-04-03T21:26:39.472Z,44.77
2023-04-03T21:29:08.231Z,44.55
2023-04-03T21:31:54.425Z,43.62
2023-04-03T21:34:25.878Z,43.82
2023-04-03T21:36:53.871Z,43.71
2023-04-03T21:39:23.099Z,44.49
2023-04-03T21:41:51.811Z,45.15
2023-04-03T21:44:19.953Z,44.29
2023-04-03T21:46:48.715Z,44.25
2023-04-03T21:49:17.136Z,44.80
2023-04-03T21:51:46.297Z,44.25
2023-04-03T21:54:14.010Z,44.87
2023-04-03T21:56:41.707Z,44.92
2023-04-03T21:59:09.526Z,46.14
2023-04-03T22:01:37.665Z,45.85
2023-04-03T22:04:05.792Z,45.58
2023-04-03T22:06:33.671Z,45.15
2023-04-03T22:09:03.889Z,45.14
2023-04-03T22:11:31.673Z,44.40
2023-04-03T22:13:59.808Z,45.54
2023-04-03T22:16:27.683Z,45.45
2023-04-03T22:18:59.103Z,45.79
2023-04-03T22:21:27.125Z,45.13
2023-04-03T22:23:55.578Z,45.46
2023-04-03T22:26:24.685Z,45.24
2023-04-03T22:28:52.408Z,45.05
2023-04-03T22:31:21.000Z,44.17
2023-04-03T22:33:48.799Z,45.98
2023-04-03T22:36:16.640Z,44.46
2023-04-03T22:38:44.768Z,45.30
2023-04-03T22:41:12.797Z,46.43
2023-04-03T22:43:42.581Z,45.87
2023-04-03T22:46:11.333Z,46.61
2023-04-03T22:48:42.473Z,46.91
2023-04-03T22:51:10.440Z,46.61
2023-04-03T22:53:38.633Z,46.87
2023-04-03T22:56:10.571Z,46.43
2023-04-03T22:58:38.948Z,47.27
2023-04-03T23:01:11.348Z,46.82
2023-04-03T23:03:40.708Z,47.25
2023-04-03T23:06:09.471Z,47.62
2023-04-03T23:08:39.033Z,47.63
2023-04-03T23:11:09.259Z,47.66
2023-04-03T23:13:37.382Z,46.84
2023-04-03T23:16:06.784Z,45.49
2023-04-03T23:18:39.723Z,46.51
2023-04-03T23:21:08.404Z,46.17
2023-04-03T23:23:36.118Z,47.22
2023-04-03T23:26:04.064Z,47.09
2023-04-03T23:28:31.906Z,47.03
2023-04-03T23:31:01.726Z,46.74
2023-04-03T23:33:30.359Z,46.41
2023-04-03T23:36:00.789Z,46.20
2023-04-03T23:38:29.503Z,46.45
2023-04-03T23:40:57.329Z,46.62
2023-04-03T23:43:25.153Z,47.24
2023-04-03T23:45:52.893Z,46.38
2023-04-03T23:48:20.788Z,47.25
2023-04-03T23:50:48.579Z,47.71
2023-04-03T23:53:18.405Z,48.10
2023-04-03T23:55:46.247Z,47.63
2023-04-03T23:58:14.091Z,46.98
